地図

経路データ

SID SEASON NUMBER BASIN SUBBASIN NAME ISO_TIME NATURE LAT LON WMO_WIND WMO_PRES WMO_AGENCY TRACK_TYPE DIST2LAND LANDFALL IFLAG USA_AGENCY USA_ATCF_ID USA_LAT USA_LON USA_RECORD USA_STATUS USA_WIND USA_PRES USA_SSHS USA_R34_NE USA_R34_SE USA_R34_SW USA_R34_NW USA_R50_NE USA_R50_SE USA_R50_SW USA_R50_NW USA_R64_NE USA_R64_SE USA_R64_SW USA_R64_NW USA_POCI USA_ROCI USA_RMW USA_EYE TOKYO_LAT TOKYO_LON TOKYO_GRADE TOKYO_WIND TOKYO_PRES TOKYO_R50_DIR TOKYO_R50_LONG TOKYO_R50_SHORT TOKYO_R30_DIR TOKYO_R30_LONG TOKYO_R30_SHORT TOKYO_LAND CMA_LAT CMA_LON CMA_CAT CMA_WIND CMA_PRES HKO_LAT HKO_LON HKO_CAT HKO_WIND HKO_PRES NEWDELHI_LAT NEWDELHI_LON NEWDELHI_GRADE NEWDELHI_WIND NEWDELHI_PRES NEWDELHI_CI NEWDELHI_DP NEWDELHI_POCI REUNION_LAT REUNION_LON REUNION_TYPE REUNION_WIND REUNION_PRES REUNION_TNUM REUNION_CI REUNION_RMW REUNION_R34_NE REUNION_R34_SE REUNION_R34_SW REUNION_R34_NW REUNION_R50_NE REUNION_R50_SE REUNION_R50_SW REUNION_R50_NW REUNION_R64_NE REUNION_R64_SE REUNION_R64_SW REUNION_R64_NW BOM_LAT BOM_LON BOM_TYPE BOM_WIND BOM_PRES BOM_TNUM BOM_CI BOM_RMW BOM_R34_NE BOM_R34_SE BOM_R34_SW BOM_R34_NW BOM_R50_NE BOM_R50_SE BOM_R50_SW BOM_R50_NW BOM_R64_NE BOM_R64_SE BOM_R64_SW BOM_R64_NW BOM_ROCI BOM_POCI BOM_EYE BOM_POS_METHOD BOM_PRES_METHOD NADI_LAT NADI_LON NADI_CAT NADI_WIND NADI_PRES WELLINGTON_LAT WELLINGTON_LON WELLINGTON_WIND WELLINGTON_PRES DS824_LAT DS824_LON DS824_STAGE DS824_WIND DS824_PRES TD9636_LAT TD9636_LON TD9636_STAGE TD9636_WIND TD9636_PRES TD9635_LAT TD9635_LON TD9635_WIND TD9635_PRES TD9635_ROCI NEUMANN_LAT NEUMANN_LON NEUMANN_CLASS NEUMANN_WIND NEUMANN_PRES MLC_LAT MLC_LON MLC_CLASS MLC_WIND MLC_PRES USA_GUST BOM_GUST BOM_GUST_PER REUNION_GUST REUNION_GUST_PER USA_SEAHGT USA_SEARAD_NE USA_SEARAD_SE USA_SEARAD_SW USA_SEARAD_NW STORM_SPEED STORM_DIR
1965238N14114 1965 78 WP MM NOT_NAMED 1965-08-25 12:00:00 NR 14.0000 114.100 main 512 502 __________O___ -1 14.0000 114.100 1 3 280
1965238N14114 1965 78 WP MM NOT_NAMED 1965-08-25 15:00:00 NR 14.0243 113.961 main 502 481 __________P___ -1 14.0243 113.961 1 3 279
1965238N14114 1965 78 WP MM NOT_NAMED 1965-08-25 18:00:00 NR 14.0490 113.768 main 481 453 __________P___ -1 14.0490 113.768 1 5 276
1965238N14114 1965 78 WP MM NOT_NAMED 1965-08-25 21:00:00 NR 14.0742 113.465 main 453 336 __________P___ -1 14.0742 113.465 1 14 279
1965238N14114 1965 78 WP MM NOT_NAMED 1965-08-26 00:00:00 TS 14.2667 112.300 main 326 254 O________OO___ jtwc_wp WP391965 14.6000 110.900 TD -1 14.6000 110.900 TC 14.1000 113.000 1 19 279
1965238N14114 1965 78 WP MM NOT_NAMED 1965-08-26 03:00:00 TS 14.3629 111.518 main 243 181 P________PP___ WP391965 14.6001 110.700 TD -1 14.6001 110.700 TC 14.1256 112.335 1 14 276
1965238N14114 1965 78 WP MM NOT_NAMED 1965-08-26 06:00:00 TS 14.4203 110.904 main 181 131 O________OP___ jtwc_wp WP391965 14.6000 110.500 TD -1 14.6000 110.500 TC 14.1507 111.509 1 11 273
1965238N14114 1965 78 WP MM NOT_NAMED 1965-08-26 09:00:00 TS 14.4127 110.414 main 131 72 P________PP___ WP391965 14.6501 110.250 TD -1 14.6501 110.250 TC 14.1753 110.579 1 11 267
1965238N14114 1965 78 WP MM NOT_NAMED 1965-08-26 12:00:00 TS 14.3667 109.733 main 63 0 O________OO___ jtwc_wp WP391965 14.7000 110.000 TD -1 14.7000 110.000 TC 14.2000 109.600 1 17 263
1965238N14114 1965 78 WP MM NOT_NAMED 1965-08-26 15:00:00 NR 14.1999 108.668 main 0 0 __________P___ WP391965 TD -1 TC 14.1999 108.668 1 20 265
1965238N14114 1965 78 WP MM NOT_NAMED 1965-08-26 18:00:00 NR 14.2039 107.701 main 0 0 __________P___ -1 14.2039 107.701 1 19 271
1965238N14114 1965 78 WP MM NOT_NAMED 1965-08-26 21:00:00 NR 14.2310 106.708 main 0 0 __________P___ -1 14.2310 106.708 1 19 273
1965238N14114 1965 78 WP MM NOT_NAMED 1965-08-27 00:00:00 NR 14.3000 105.700 main 0 0 __________O___ -1 14.3000 105.700 1 20 275
1965238N14114 1965 78 WP MM NOT_NAMED 1965-08-27 03:00:00 NR 14.3903 104.688 main 0 0 __________P___ -1 14.3903 104.688 1 20 277
1965238N14114 1965 78 WP MM NOT_NAMED 1965-08-27 06:00:00 NR 14.5287 103.663 main 0 0 __________P___ -1 14.5287 103.663 1 20 280
1965238N14114 1965 78 WP MM NOT_NAMED 1965-08-27 09:00:00 NR 14.7277 102.631 main 0 0 __________P___ -1 14.7277 102.631 1 21 283
1965238N14114 1965 78 WP MM NOT_NAMED 1965-08-27 12:00:00 NR 15.0000 101.600 main 0 0 __________O___ -1 15.0000 101.600 1 22 288
1965238N14114 1965 78 WP MM NOT_NAMED 1965-08-27 15:00:00 NR 15.4150 100.490 main 0 0 __________P___ -1 15.4150 100.490 1 23 293
1965238N14114 1965 78 NI BB NOT_NAMED 1965-08-27 18:00:00 NR 15.8893 99.3905 main 0 0 __________P___ -1 15.8893 99.3905 1 22 294
1965238N14114 1965 78 NI BB NOT_NAMED 1965-08-27 21:00:00 NR 16.3437 98.3706 main 0 0 __________P___ -1 16.3437 98.3706 1 20 294
1965238N14114 1965 78 NI BB NOT_NAMED 1965-08-28 00:00:00 NR 16.7000 97.5000 main 0 0 __________O___ -1 16.7000 97.5000 1 15 290
1965238N14114 1965 78 NI BB NOT_NAMED 1965-08-28 03:00:00 NR 16.8580 96.9090 main 0 0 __________P___ -1 16.8580 96.9090 1 10 282
1965238N14114 1965 78 NI BB NOT_NAMED 1965-08-28 06:00:00 NR 16.9149 96.4646 main 0 0 __________P___ -1 16.9149 96.4646 1 8 274
1965238N14114 1965 78 NI BB NOT_NAMED 1965-08-28 09:00:00 NR 16.9147 96.0630 main 0 0 __________P___ -1 16.9147 96.0630 1 8 269
1965238N14114 1965 78 NI BB NOT_NAMED 1965-08-28 12:00:00 NR 16.9000 95.6000 main 0 0 __________O___ -1 16.9000 95.6000 1 11 269
1965238N14114 1965 78 NI BB NOT_NAMED 1965-08-28 15:00:00 NR 16.8973 94.8715 main 0 0 __________P___ -1 16.8973 94.8715 1 15 270
1965238N14114 1965 78 NI BB NOT_NAMED 1965-08-28 18:00:00 NR 16.8924 94.0763 main 31 31 __________P___ -1 16.8924 94.0763 1 15 271
1965238N14114 1965 78 NI BB NOT_NAMED 1965-08-28 21:00:00 NR 16.9161 93.2932 main 115 115 __________P___ -1 16.9161 93.2932 1 14 274
1965238N14114 1965 78 NI BB NOT_NAMED 1965-08-29 00:00:00 NR 17.0000 92.6000 main 189 189 __________O___ -1 17.0000 92.6000 1 12 282
1965238N14114 1965 78 NI BB NOT_NAMED 1965-08-29 03:00:00 NR 17.1556 92.0712 main 246 246 __________P___ -1 17.1556 92.0712 1 10 292
1965238N14114 1965 78 NI BB NOT_NAMED 1965-08-29 06:00:00 NR 17.3786 91.6428 main 285 285 __________P___ -1 17.3786 91.6428 1 9 304
1965238N14114 1965 78 NI BB NOT_NAMED 1965-08-29 09:00:00 NR 17.6623 91.2929 main 292 292 __________P___ -1 17.6623 91.2929 1 9 315
1965238N14114 1965 78 NI BB NOT_NAMED 1965-08-29 12:00:00 NR 18.0000 91.0000 main 305 290 __________O___ -1 18.0000 91.0000 1 9 324
1965238N14114 1965 78 NI BB NOT_NAMED 1965-08-29 15:00:00 NR 18.3839 90.7447 main 298 283 __________P___ -1 18.3839 90.7447 1 9 330
1965238N14114 1965 78 NI BB NOT_NAMED 1965-08-29 18:00:00 NR 18.8031 90.5156 main 285 275 __________P___ -1 18.8031 90.5156 1 10 334
1965238N14114 1965 78 NI BB NOT_NAMED 1965-08-29 21:00:00 NR 19.2458 90.3038 main 276 234 __________P___ -1 19.2458 90.3038 1 10 336
1965238N14114 1965 78 NI BB NOT_NAMED 1965-08-30 00:00:00 NR 19.7000 90.1000 main 234 __________O___ -1 19.7000 90.1000 1 10 337

デジタル台風データ・検索

IBTrACS Databaseについて

本データベースは、米国NOAAが公開する1842年以降の世界の熱帯低気圧のベストトラックデータアーカイブInternational Best Track Archive for Climate Stewardship (IBTrACS)を、ウェブで閲覧しやすい形式に変換したものです。

最終更新日:2021-12-01